ADDS METAR Data INFO
IDs: Format: Raw Decoded Include TAF

Data at: 1525 UTC 18 Jun 2018

K4BM 181512Z AUTO 20003KT 10SM CLR 09/05 A3046 RMK AO2
K4BM 181454Z AUTO 21006KT 10SM CLR 08/05 A3046 RMK AO2
K4BM 181430Z AUTO 20005KT 10SM CLR 08/05 A3045 RMK AO2 LTG DSNT NW
K4BM 181412Z AUTO 21006G16KT 10SM CLR 07/05 A3045 RMK AO2
K4BM 181354Z AUTO 22009G14KT 10SM CLR 06/05 A3044 RMK AO2 LTG DSNT NW
K4BM 181330Z AUTO 22009G16KT 10SM CLR 06/05 A3044 RMK AO2
K4BM 181312Z AUTO 22009G14KT 10SM CLR 05/05 A3043 RMK AO2
K4BM 181254Z AUTO 22007KT 10SM CLR 05/04 A3043 RMK AO2 LTG DSNT NW
K4BM 181230Z AUTO 22009G15KT 10SM CLR 05/04 A3043 RMK AO2 LTG DSNT NW
K4BM 181213Z AUTO 23011KT 10SM CLR 05/04 A3043 RMK AO2
K4BM 181153Z AUTO 23011G15KT 10SM SCT110 05/04 A3042 RMK AO2 LTG DSNT NW
K4BM 181135Z AUTO 22009KT 10SM SCT110 05/04 A3042 RMK AO2 LTG DSNT NW
K4BM 181111Z AUTO 23009KT 10SM SCT110 05/04 A3042 RMK AO2
K4BM 181054Z AUTO 23011KT 10SM SCT120 05/04 A3041 RMK AO2 LTG DSNT SW
K4BM 181030Z AUTO 22010KT 10SM SCT110 05/04 A3040 RMK AO2 LTG DSNT NW
K4BM 181012Z AUTO 23010KT 10SM SCT060 SCT110 05/04 A3041 RMK AO2 LTG DSNT SW
K4BM 180953Z AUTO 23008KT 10SM CLR 05/04 A3041 RMK AO2 LTG DSNT NW
K4BM 180930Z AUTO 22008KT 10SM SCT060 SCT110 05/05 A3040 RMK AO2 LTG DSNT NW
K4BM 180912Z AUTO 22008KT 10SM SCT001 SCT060 BKN065 06/05 A3040 RMK AO2
K4BM 180853Z AUTO 22009KT 1/2SM FG OVC001 06/05 A3040 RMK AO2 LTG DSNT NW
K4BM 180835Z AUTO 22006KT 1/2SM FG OVC001 06/05 A3040 RMK AO2
K4BM 180812Z AUTO 21007KT 1SM -RA BKN001 OVC039 06/05 A3040 RMK AO2
K4BM 180754Z AUTO 22007KT 10SM BKN039 OVC050 06/05 A3040 RMK AO2 LTG DSNT NW
K4BM 180730Z AUTO 23005KT 10SM BKN035 OVC060 06/05 A3040 RMK AO2 LTG DSNT NW
K4BM 180712Z AUTO 21005KT 7SM BKN033 OVC060 06/05 A3040 RMK AO2 LTG DSNT NW
K4BM 180654Z AUTO 23006KT 4SM BR SCT035 BKN080 BKN120 06/05 A3040 RMK AO2 LTG DSNT NW
K4BM 180630Z AUTO 24005KT 10SM SCT035 BKN045 BKN075 06/05 A3041 RMK AO2
K4BM 180612Z AUTO 24005KT 10SM SCT032 BKN045 OVC110 06/05 A3042 RMK AO2 LTG DSNT NW
K4BM 180554Z AUTO 22005KT 7SM SCT029 BKN034 OVC110 06/06 A3042 RMK AO2
K4BM 180530Z AUTO 00000KT 7SM SCT001 SCT037 BKN095 06/06 A3042 RMK AO2
K4BM 180512Z AUTO 00000KT 10SM SCT037 BKN065 BKN090 07/06 A3042 RMK AO2 LTG DSNT SW AND NW
K4BM 180454Z AUTO 00000KT 10SM SCT048 SCT055 BKN085 06/05 A3042 RMK AO2
K4BM 180430Z AUTO 21003KT 2 1/2SM RA SCT034 BKN045 OVC050 07/06 A3042 RMK AO2 VIS 1/2V5 LTG DSNT S AND NW
K4BM 180412Z AUTO 20003KT 10SM BKN036 OVC045 07/06 A3042 RMK AO2 LTG DSNT S
K4BM 180354Z AUTO 19004KT 10SM -DZ OVC036 07/06 A3042 RMK AO2 LTG DSNT NW
K4BM 180330Z AUTO 21004KT 10SM SCT027 OVC038 07/06 A3040 RMK AO2 LTG DSNT NW
K4BM 180312Z AUTO 21006KT 10SM -RA SCT032 BKN038 OVC050 07/05 A3039 RMK AO2 LTG DSNT N
K4BM 180254Z AUTO 00000KT 10SM -RA SCT003 BKN039 OVC050 07/06 A3038 RMK AO2 LTG DSNT NW
K4BM 180230Z AUTO 21008KT 5SM BR SCT001 BKN021 OVC032 07/06 A3039 RMK AO2 LTG DSNT N AND SW
K4BM 180212Z AUTO 21007KT 1/4SM -RA OVC001 07/07 A3039 RMK AO2 LTG DSNT N AND NW
K4BM 180154Z AUTO 20007KT M1/4SM RA OVC001 07/07 A3038 RMK AO2 LTG DSNT N
K4BM 180130Z AUTO 25003KT 10SM TS SCT003 BKN038 OVC065 07/06 A3037 RMK AO2 LTG DSNT N AND NW
K4BM 180112Z AUTO 27003KT 1 3/4SM -RA BKN003 BKN014 OVC040 07/06 A3037 RMK AO2 LTG DSNT N AND SE
K4BM 180054Z AUTO 23009G15KT 1/2SM -VCTSRA BKN001 OVC006 07/07 A3036 RMK AO2 LTG DSNT NW
K4BM 180030Z AUTO 21008KT 190V250 2 1/2SM TSRA SCT001 BKN012 OVC030 08/06 A3036 RMK AO2 LTG DSNT SE THRU NW
K4BM 180013Z AUTO 25005KT 1 1/4SM +RA SCT012 BKN020 OVC027 08/06 A3035 RMK AO2 LTG DSNT S AND NW
K4BM 172351Z AUTO 20005KT 10SM -RA SCT022 BKN026 OVC042 10/06 A3035 RMK AO2 LTG DSNT SW AND NW
K4BM 172334Z AUTO 17006KT 10SM -TSDZ SCT001 BKN030 OVC042 09/07 A3034 RMK AO2 LTG DSNT S AND SW
K4BM 172311Z AUTO 15004KT 1 1/4SM VCTS BR OVC001 09/07 A3035 RMK AO2 LTG DSNT S AND SW
K4BM 172254Z AUTO 12006KT 090V150 1SM TS BR OVC001 09/07 A3036 RMK AO2 VIS 1/2V4 LTG DSNT SW THRU N
K4BM 172230Z AUTO 18004KT 10SM VCTS SCT001 BKN065 OVC085 12/07 A3034 RMK AO2 LTG DSNT N S AND SW
K4BM 172212Z AUTO 20005KT 10SM VCTS SCT070 BKN080 15/05 A3033 RMK AO2 LTG DSNT ALQS
K4BM 172154Z AUTO 20005KT 10SM TS BKN070 13/07 A3034 RMK AO2 LTG DSNT N S AND SW
K4BM 172130Z AUTO 21004KT 10SM VCTS OVC060 13/02 A3034 RMK AO2 LTG DSNT S THRU NW
K4BM 172112Z AUTO 22006KT 10SM SCT040 SCT048 BKN060 14/02 A3035 RMK AO2 LTG DSNT S AND NW
K4BM 172054Z AUTO 19007KT 7SM VCTSDZ SCT035 OVC040 11/04 A3035 RMK AO2 LTG DSNT N S AND NW
K4BM 172030Z AUTO 20009G15KT 10SM VCTS BKN034 BKN045 OVC050 12/04 A3035 RMK AO2 LTG DSNT N AND NW
K4BM 172012Z AUTO 21006G14KT 10SM SCT029 BKN045 OVC055 14/06 A3033 RMK AO2 LTG DSNT N
K4BM 171954Z AUTO 22012G17KT 7SM -RA SCT021 BKN041 OVC055 10/06 A3033 RMK AO2 LTG DSNT N AND SW
K4BM 171930Z AUTO 23014G21KT 10SM RA SCT023 BKN048 OVC095 12/06 A3033 RMK AO2
K4BM 171912Z AUTO 23016G23KT 10SM SCT027 SCT043 BKN090 15/04 A3032 RMK AO2 LTG DSNT S
K4BM 171853Z AUTO 21004KT 10SM SCT035 SCT060 SCT075 16/01 A3033 RMK AO2 LTG DSNT N
K4BM 171830Z AUTO 21005KT 10SM VCTS BKN035 BKN044 OVC075 14/03 A3033 RMK AO2 LTG DSNT S AND NW
K4BM 171812Z AUTO 23005G14KT 10SM TS BKN035 BKN046 OVC075 14/03 A3033 RMK AO2 LTG DSNT SE SW AND NW
K4BM 171754Z AUTO 22004KT 10SM BKN035 BKN050 13/02 A3033 RMK AO2 LTG DSNT SW AND NW
K4BM 171730Z AUTO 21007KT 10SM VCTS BKN031 BKN038 BKN045 13/03 A3033 RMK AO2 LTG DSNT S AND SW
K4BM 171712Z AUTO 24008G19KT 10SM SCT029 BKN055 OVC070 12/03 A3033 RMK AO2 LTG DSNT SE AND SW
K4BM 171654Z AUTO 21007KT 10SM SCT023 SCT050 BKN070 13/03 A3033 RMK AO2 LTG DSNT SE THRU NW
K4BM 171630Z AUTO 21008KT 10SM SCT037 SCT047 BKN065 12/04 A3033 RMK AO2
K4BM 171612Z AUTO 22006KT 10SM SCT025 BKN037 OVC044 11/03 A3033 RMK AO2
K4BM 171554Z AUTO 23005KT 10SM SCT026 BKN030 OVC038 11/03 A3033 RMK AO2
K4BM 171530Z AUTO 21006KT 10SM SCT020 BKN036 BKN041 11/04 A3032 RMK AO2
K4BM 171512Z AUTO 21005KT 10SM SCT014 SCT020 SCT038 11/05 A3032 RMK AO2
K4BM 171454Z AUTO 22005KT 10SM CLR 11/05 A3032 RMK AO2
K4BM 171430Z AUTO 23009G15KT 10SM SCT012 09/05 A3031 RMK AO2
K4BM 171412Z AUTO 21007KT 10SM SCT012 SCT023 08/05 A3031 RMK AO2
K4BM 171354Z AUTO 21007KT 10SM SCT012 SCT023 08/04 A3030 RMK AO2
K4BM 171330Z AUTO 22005KT 10SM CLR 08/04 A3028 RMK AO2
K4BM 171312Z AUTO 21005KT 10SM CLR 07/04 A3028 RMK AO2 LTG DSNT NW
K4BM 171250Z AUTO 22003KT 10SM CLR 07/04 A3028 RMK AO2
K4BM 171232Z AUTO 22005KT 10SM CLR 07/04 A3028 RMK AO2
K4BM 171214Z AUTO 22005KT 10SM CLR 06/04 A3026 RMK AO2 LTG DSNT NW
K4BM 171153Z AUTO 24006KT 10SM SCT048 06/04 A3026 RMK AO2
K4BM 171135Z AUTO 24009KT 10SM SCT050 SCT065 06/04 A3026 RMK AO2 LTG DSNT NW
K4BM 171112Z AUTO 23008KT 10SM SCT047 SCT060 SCT065 07/03 A3026 RMK AO2 LTG DSNT NW
K4BM 171053Z AUTO 23007KT 10SM SCT049 BKN060 07/04 A3026 RMK AO2
K4BM 171030Z AUTO 23007KT 10SM SCT060 07/03 A3026 RMK AO2 LTG DSNT NW
K4BM 171012Z AUTO 23008KT 10SM CLR 07/03 A3026 RMK AO2
K4BM 170953Z AUTO 22006KT 10SM CLR 07/03 A3026 RMK AO2 LTG DSNT NW
K4BM 170930Z AUTO 22009KT 10SM SCT033 BKN050 07/03 A3026 RMK AO2 LTG DSNT SW AND NW
K4BM 170912Z AUTO 21003KT 10SM BKN033 OVC047 07/03 A3026 RMK AO2
K4BM 170853Z AUTO 22003KT 10SM BKN033 BKN048 07/03 A3026 RMK AO2 LTG DSNT SE THRU NW
K4BM 170830Z AUTO 22005KT 10SM SCT031 BKN048 07/03 A3025 RMK AO2 LTG DSNT NW
K4BM 170812Z AUTO 22006KT 10SM SCT031 BKN037 SCT044 08/03 A3025 RMK AO2 LTG DSNT SW AND NW
K4BM 170754Z AUTO 22005KT 10SM SCT025 OVC035 08/03 A3026 RMK AO2 LTG DSNT NW
K4BM 170730Z AUTO 21004KT 10SM SCT025 BKN047 OVC060 08/03 A3026 RMK AO2
K4BM 170712Z AUTO 22004KT 10SM SCT038 SCT048 OVC060 08/03 A3026 RMK AO2 LTG DSNT NW
K4BM 170654Z AUTO 00000KT 10SM BKN060 08/03 A3026 RMK AO2
K4BM 170630Z AUTO 22005KT 10SM CLR 07/03 A3026 RMK AO2
K4BM 170612Z AUTO 22004KT 10SM CLR 08/03 A3027 RMK AO2
K4BM 170552Z AUTO 21004KT 10SM SCT050 SCT060 08/03 A3026 RMK AO2 LTG DSNT NW
K4BM 170535Z AUTO 23007KT 10SM -RA SCT037 BKN050 BKN060 08/03 A3026 RMK AO2
K4BM 170511Z AUTO 22005KT 10SM RA SCT040 BKN046 OVC060 09/03 A3027 RMK AO2 LTG DSNT NW
K4BM 170452Z AUTO 24006KT 10SM SCT043 OVC060 09/02 A3028 RMK AO2
K4BM 170435Z AUTO 22008KT 10SM SCT050 BKN060 09/02 A3027 RMK AO2 LTG DSNT NW
K4BM 170412Z AUTO 22006KT 10SM SCT050 BKN060 09/02 A3028 RMK AO2
K4BM 170354Z AUTO 22004KT 10SM BKN060 10/02 A3026 RMK AO2
K4BM 170330Z AUTO 22006KT 10SM BKN047 OVC060 10/02 A3026 RMK AO2